sensor_id;sensor_type;location;lat;lon;timestamp;temperature;humidity
67354;SHT30;54238;52.278;21.056;2023-08-20T00:01:45;22.76;75.64
67354;SHT30;54238;52.278;21.056;2023-08-20T00:04:15;22.74;75.74
67354;SHT30;54238;52.278;21.056;2023-08-20T00:06:47;22.72;75.79
67354;SHT30;54238;52.278;21.056;2023-08-20T00:09:17;22.73;75.89
67354;SHT30;54238;52.278;21.056;2023-08-20T00:11:49;22.71;75.89
67354;SHT30;54238;52.278;21.056;2023-08-20T00:14:19;22.64;75.89
67354;SHT30;54238;52.278;21.056;2023-08-20T00:17:08;22.57;76.01
67354;SHT30;54238;52.278;21.056;2023-08-20T00:19:42;22.51;76.23
67354;SHT30;54238;52.278;21.056;2023-08-20T00:22:10;22.49;76.35
67354;SHT30;54238;52.278;21.056;2023-08-20T00:24:42;22.48;76.52
67354;SHT30;54238;52.278;21.056;2023-08-20T00:27:09;22.46;76.66
67354;SHT30;54238;52.278;21.056;2023-08-20T00:29:44;22.47;76.72
67354;SHT30;54238;52.278;21.056;2023-08-20T00:32:14;22.48;76.70
67354;SHT30;54238;52.278;21.056;2023-08-20T00:34:44;22.45;76.63
67354;SHT30;54238;52.278;21.056;2023-08-20T00:37:11;22.41;76.82
67354;SHT30;54238;52.278;21.056;2023-08-20T00:39:41;22.41;76.89
67354;SHT30;54238;52.278;21.056;2023-08-20T00:42:14;22.41;76.85
67354;SHT30;54238;52.278;21.056;2023-08-20T00:44:42;22.40;76.88
67354;SHT30;54238;52.278;21.056;2023-08-20T00:47:13;22.36;76.82
67354;SHT30;54238;52.278;21.056;2023-08-20T00:49:49;22.35;77.04
67354;SHT30;54238;52.278;21.056;2023-08-20T00:52:24;22.34;77.10
67354;SHT30;54238;52.278;21.056;2023-08-20T00:54:54;22.32;77.14
67354;SHT30;54238;52.278;21.056;2023-08-20T00:57:25;22.31;77.17
67354;SHT30;54238;52.278;21.056;2023-08-20T00:59:53;22.32;77.18
67354;SHT30;54238;52.278;21.056;2023-08-20T01:02:22;22.32;77.21
67354;SHT30;54238;52.278;21.056;2023-08-20T01:04:50;22.30;77.22
67354;SHT30;54238;52.278;21.056;2023-08-20T01:13:10;22.22;77.41
67354;SHT30;54238;52.278;21.056;2023-08-20T01:15:38;22.18;77.51
67354;SHT30;54238;52.278;21.056;2023-08-20T01:18:07;22.16;77.63
67354;SHT30;54238;52.278;21.056;2023-08-20T01:20:41;22.17;77.69
67354;SHT30;54238;52.278;21.056;2023-08-20T01:23:29;22.17;77.66
67354;SHT30;54238;52.278;21.056;2023-08-20T01:29:03;22.16;77.61
67354;SHT30;54238;52.278;21.056;2023-08-20T01:31:32;22.12;77.64
67354;SHT30;54238;52.278;21.056;2023-08-20T01:34:02;22.08;77.70
67354;SHT30;54238;52.278;21.056;2023-08-20T01:36:30;22.07;77.70
67354;SHT30;54238;52.278;21.056;2023-08-20T01:39:00;22.05;77.83
67354;SHT30;54238;52.278;21.056;2023-08-20T01:41:30;22.05;77.88
67354;SHT30;54238;52.278;21.056;2023-08-20T01:43:58;22.05;77.87
67354;SHT30;54238;52.278;21.056;2023-08-20T01:46:27;22.03;77.85
67354;SHT30;54238;52.278;21.056;2023-08-20T01:48:59;22.03;77.87
67354;SHT30;54238;52.278;21.056;2023-08-20T01:51:28;22.03;77.80
67354;SHT30;54238;52.278;21.056;2023-08-20T01:53:55;22.00;77.93
67354;SHT30;54238;52.278;21.056;2023-08-20T01:56:24;22.02;78.03
67354;SHT30;54238;52.278;21.056;2023-08-20T01:58:51;22.05;78.01
67354;SHT30;54238;52.278;21.056;2023-08-20T02:01:21;22.06;77.98
67354;SHT30;54238;52.278;21.056;2023-08-20T02:03:48;22.07;77.93
67354;SHT30;54238;52.278;21.056;2023-08-20T02:06:19;22.05;77.89
67354;SHT30;54238;52.278;21.056;2023-08-20T02:08:47;22.03;77.89
67354;SHT30;54238;52.278;21.056;2023-08-20T02:11:19;22.03;77.92
67354;SHT30;54238;52.278;21.056;2023-08-20T02:13:51;22.02;77.97
67354;SHT30;54238;52.278;21.056;2023-08-20T02:16:20;22.03;77.94
67354;SHT30;54238;52.278;21.056;2023-08-20T02:18:49;22.04;77.95
67354;SHT30;54238;52.278;21.056;2023-08-20T02:21:22;22.03;77.97
67354;SHT30;54238;52.278;21.056;2023-08-20T02:23:51;22.01;77.88
67354;SHT30;54238;52.278;21.056;2023-08-20T02:26:18;21.99;77.93
67354;SHT30;54238;52.278;21.056;2023-08-20T02:28:48;21.97;77.92
67354;SHT30;54238;52.278;21.056;2023-08-20T02:31:15;21.96;77.98
67354;SHT30;54238;52.278;21.056;2023-08-20T02:33:47;21.93;77.96
67354;SHT30;54238;52.278;21.056;2023-08-20T02:36:15;21.91;77.94
67354;SHT30;54238;52.278;21.056;2023-08-20T02:38:42;21.90;77.99
67354;SHT30;54238;52.278;21.056;2023-08-20T02:41:18;21.89;77.97
67354;SHT30;54238;52.278;21.056;2023-08-20T02:43:46;21.88;78.00
67354;SHT30;54238;52.278;21.056;2023-08-20T02:46:17;21.88;77.99
67354;SHT30;54238;52.278;21.056;2023-08-20T02:48:45;21.86;77.93
67354;SHT30;54238;52.278;21.056;2023-08-20T02:51:15;21.81;77.90
67354;SHT30;54238;52.278;21.056;2023-08-20T02:53:47;21.76;77.96
67354;SHT30;54238;52.278;21.056;2023-08-20T02:56:14;21.76;78.07
67354;SHT30;54238;52.278;21.056;2023-08-20T02:58:43;21.76;78.08
67354;SHT30;54238;52.278;21.056;2023-08-20T03:01:23;21.74;78.08
67354;SHT30;54238;52.278;21.056;2023-08-20T03:03:55;21.71;78.11
67354;SHT30;54238;52.278;21.056;2023-08-20T03:06:24;21.67;78.17
67354;SHT30;54238;52.278;21.056;2023-08-20T03:08:54;21.67;78.28
67354;SHT30;54238;52.278;21.056;2023-08-20T03:11:21;21.64;78.14
67354;SHT30;54238;52.278;21.056;2023-08-20T03:13:51;21.59;78.12
67354;SHT30;54238;52.278;21.056;2023-08-20T03:16:26;21.59;78.24
67354;SHT30;54238;52.278;21.056;2023-08-20T03:18:53;21.61;78.20
67354;SHT30;54238;52.278;21.056;2023-08-20T03:21:28;21.62;78.13
67354;SHT30;54238;52.278;21.056;2023-08-20T03:23:56;21.56;78.11
67354;SHT30;54238;52.278;21.056;2023-08-20T03:26:28;21.55;78.28
67354;SHT30;54238;52.278;21.056;2023-08-20T03:28:57;21.58;78.23
67354;SHT30;54238;52.278;21.056;2023-08-20T03:31:25;21.60;78.14
67354;SHT30;54238;52.278;21.056;2023-08-20T03:33:55;21.63;78.16
67354;SHT30;54238;52.278;21.056;2023-08-20T03:36:26;21.65;78.08
67354;SHT30;54238;52.278;21.056;2023-08-20T03:38:56;21.69;78.01
67354;SHT30;54238;52.278;21.056;2023-08-20T03:41:25;21.72;77.93
67354;SHT30;54238;52.278;21.056;2023-08-20T03:44:00;21.75;77.90
67354;SHT30;54238;52.278;21.056;2023-08-20T03:46:34;21.82;77.88
67354;SHT30;54238;52.278;21.056;2023-08-20T03:49:03;21.85;77.78
67354;SHT30;54238;52.278;21.056;2023-08-20T03:51:38;21.86;77.74
67354;SHT30;54238;52.278;21.056;2023-08-20T03:54:09;21.86;77.74
67354;SHT30;54238;52.278;21.056;2023-08-20T03:56:39;21.90;77.79
67354;SHT30;54238;52.278;21.056;2023-08-20T03:59:09;21.95;77.65
67354;SHT30;54238;52.278;21.056;2023-08-20T04:01:39;21.98;77.50
67354;SHT30;54238;52.278;21.056;2023-08-20T04:04:09;22.01;77.50
67354;SHT30;54238;52.278;21.056;2023-08-20T04:06:38;22.03;77.36
67354;SHT30;54238;52.278;21.056;2023-08-20T04:09:07;22.07;77.27
67354;SHT30;54238;52.278;21.056;2023-08-20T04:11:35;22.11;77.20
67354;SHT30;54238;52.278;21.056;2023-08-20T04:14:02;22.14;77.20
67354;SHT30;54238;52.278;21.056;2023-08-20T04:16:32;22.18;77.13
67354;SHT30;54238;52.278;21.056;2023-08-20T04:18:59;22.22;77.06
67354;SHT30;54238;52.278;21.056;2023-08-20T04:21:27;22.25;76.95
67354;SHT30;54238;52.278;21.056;2023-08-20T04:23:56;22.31;76.89
67354;SHT30;54238;52.278;21.056;2023-08-20T04:26:31;22.32;76.81
67354;SHT30;54238;52.278;21.056;2023-08-20T04:29:03;22.36;76.74
67354;SHT30;54238;52.278;21.056;2023-08-20T04:31:32;22.38;76.66
67354;SHT30;54238;52.278;21.056;2023-08-20T04:33:59;22.39;76.60
67354;SHT30;54238;52.278;21.056;2023-08-20T04:36:33;22.38;76.62
67354;SHT30;54238;52.278;21.056;2023-08-20T04:39:03;22.38;76.70
67354;SHT30;54238;52.278;21.056;2023-08-20T04:41:35;22.44;76.65
67354;SHT30;54238;52.278;21.056;2023-08-20T04:44:04;22.48;76.60
67354;SHT30;54238;52.278;21.056;2023-08-20T04:46:36;22.53;76.56
67354;SHT30;54238;52.278;21.056;2023-08-20T04:49:05;22.57;76.50
67354;SHT30;54238;52.278;21.056;2023-08-20T04:51:37;22.60;76.46
67354;SHT30;54238;52.278;21.056;2023-08-20T04:54:07;22.63;76.40
67354;SHT30;54238;52.278;21.056;2023-08-20T04:56:38;22.65;76.43
67354;SHT30;54238;52.278;21.056;2023-08-20T04:59:12;22.67;76.42
67354;SHT30;54238;52.278;21.056;2023-08-20T05:01:42;22.70;76.39
67354;SHT30;54238;52.278;21.056;2023-08-20T05:04:12;22.74;76.32
67354;SHT30;54238;52.278;21.056;2023-08-20T05:06:41;22.78;76.28
67354;SHT30;54238;52.278;21.056;2023-08-20T05:09:10;22.84;76.23
67354;SHT30;54238;52.278;21.056;2023-08-20T05:11:42;22.90;76.10
67354;SHT30;54238;52.278;21.056;2023-08-20T05:14:11;22.97;75.85
67354;SHT30;54238;52.278;21.056;2023-08-20T05:16:41;23.03;75.67
67354;SHT30;54238;52.278;21.056;2023-08-20T05:19:15;23.10;75.52
67354;SHT30;54238;52.278;21.056;2023-08-20T05:21:46;23.17;75.40
67354;SHT30;54238;52.278;21.056;2023-08-20T05:24:16;23.24;75.40
67354;SHT30;54238;52.278;21.056;2023-08-20T05:26:43;23.32;75.33
67354;SHT30;54238;52.278;21.056;2023-08-20T05:29:12;23.41;75.40
67354;SHT30;54238;52.278;21.056;2023-08-20T05:31:39;23.48;75.26
67354;SHT30;54238;52.278;21.056;2023-08-20T05:34:11;23.56;75.12
67354;SHT30;54238;52.278;21.056;2023-08-20T05:36:40;23.66;74.90
67354;SHT30;54238;52.278;21.056;2023-08-20T05:39:10;23.75;74.66
67354;SHT30;54238;52.278;21.056;2023-08-20T05:41:37;23.83;74.47
67354;SHT30;54238;52.278;21.056;2023-08-20T05:44:04;23.92;74.24
67354;SHT30;54238;52.278;21.056;2023-08-20T05:46:31;24.02;74.04
67354;SHT30;54238;52.278;21.056;2023-08-20T05:49:01;24.10;73.85
67354;SHT30;54238;52.278;21.056;2023-08-20T05:51:30;24.18;73.68
67354;SHT30;54238;52.278;21.056;2023-08-20T05:54:02;24.26;73.51
67354;SHT30;54238;52.278;21.056;2023-08-20T05:56:31;24.35;73.27
67354;SHT30;54238;52.278;21.056;2023-08-20T05:58:59;24.45;73.05
67354;SHT30;54238;52.278;21.056;2023-08-20T06:01:28;24.55;72.81
67354;SHT30;54238;52.278;21.056;2023-08-20T06:04:00;24.65;72.61
67354;SHT30;54238;52.278;21.056;2023-08-20T06:06:30;24.76;72.35
67354;SHT30;54238;52.278;21.056;2023-08-20T06:08:57;24.84;72.12
67354;SHT30;54238;52.278;21.056;2023-08-20T06:11:27;24.93;71.94
67354;SHT30;54238;52.278;21.056;2023-08-20T06:13:54;25.03;71.70
67354;SHT30;54238;52.278;21.056;2023-08-20T06:16:24;25.15;71.37
67354;SHT30;54238;52.278;21.056;2023-08-20T06:18:57;25.26;71.07
67354;SHT30;54238;52.278;21.056;2023-08-20T06:21:32;25.37;70.95
67354;SHT30;54238;52.278;21.056;2023-08-20T06:24:02;25.48;70.74
67354;SHT30;54238;52.278;21.056;2023-08-20T06:26:35;25.59;70.47
67354;SHT30;54238;52.278;21.056;2023-08-20T06:29:04;25.71;70.19
67354;SHT30;54238;52.278;21.056;2023-08-20T06:31:34;25.83;69.92
67354;SHT30;54238;52.278;21.056;2023-08-20T06:34:03;25.95;69.73
67354;SHT30;54238;52.278;21.056;2023-08-20T06:36:35;26.08;69.37
67354;SHT30;54238;52.278;21.056;2023-08-20T06:39:04;26.23;69.00
67354;SHT30;54238;52.278;21.056;2023-08-20T06:41:39;26.36;68.69
67354;SHT30;54238;52.278;21.056;2023-08-20T06:44:10;26.47;68.38
67354;SHT30;54238;52.278;21.056;2023-08-20T06:46:38;26.58;67.99
67354;SHT30;54238;52.278;21.056;2023-08-20T06:49:07;26.71;67.69
67354;SHT30;54238;52.278;21.056;2023-08-20T06:51:37;26.84;67.33
67354;SHT30;54238;52.278;21.056;2023-08-20T06:54:06;26.95;67.35
67354;SHT30;54238;52.278;21.056;2023-08-20T06:56:39;27.06;67.02
67354;SHT30;54238;52.278;21.056;2023-08-20T06:59:06;27.18;66.69
67354;SHT30;54238;52.278;21.056;2023-08-20T07:01:39;27.30;66.10
67354;SHT30;54238;52.278;21.056;2023-08-20T07:04:09;27.42;65.72
67354;SHT30;54238;52.278;21.056;2023-08-20T07:06:39;27.54;65.47
67354;SHT30;54238;52.278;21.056;2023-08-20T07:09:11;27.68;64.90
67354;SHT30;54238;52.278;21.056;2023-08-20T07:11:38;27.83;64.62
67354;SHT30;54238;52.278;21.056;2023-08-20T07:14:08;27.96;64.31
67354;SHT30;54238;52.278;21.056;2023-08-20T07:16:37;28.06;63.96
67354;SHT30;54238;52.278;21.056;2023-08-20T07:19:04;28.15;64.27
67354;SHT30;54238;52.278;21.056;2023-08-20T07:21:32;28.26;63.80
67354;SHT30;54238;52.278;21.056;2023-08-20T07:24:02;28.39;63.51
67354;SHT30;54238;52.278;21.056;2023-08-20T07:26:32;28.50;63.21
67354;SHT30;54238;52.278;21.056;2023-08-20T07:28:59;28.60;62.08
67354;SHT30;54238;52.278;21.056;2023-08-20T07:31:27;28.68;61.64
67354;SHT30;54238;52.278;21.056;2023-08-20T07:34:03;28.80;61.65
67354;SHT30;54238;52.278;21.056;2023-08-20T07:36:31;28.92;61.76
67354;SHT30;54238;52.278;21.056;2023-08-20T07:38:59;29.02;61.50
67354;SHT30;54238;52.278;21.056;2023-08-20T07:41:30;29.13;61.10
67354;SHT30;54238;52.278;21.056;2023-08-20T07:43:59;29.21;60.68
67354;SHT30;54238;52.278;21.056;2023-08-20T07:46:29;29.29;60.54
67354;SHT30;54238;52.278;21.056;2023-08-20T07:49:01;29.39;60.53
67354;SHT30;54238;52.278;21.056;2023-08-20T07:51:30;29.48;60.23
67354;SHT30;54238;52.278;21.056;2023-08-20T07:53:59;29.52;60.30
67354;SHT30;54238;52.278;21.056;2023-08-20T07:56:30;29.61;59.91
67354;SHT30;54238;52.278;21.056;2023-08-20T07:58:57;29.70;59.61
67354;SHT30;54238;52.278;21.056;2023-08-20T08:01:25;29.79;58.83
67354;SHT30;54238;52.278;21.056;2023-08-20T08:03:52;29.87;58.74
67354;SHT30;54238;52.278;21.056;2023-08-20T08:06:19;29.97;58.61
67354;SHT30;54238;52.278;21.056;2023-08-20T08:08:48;30.07;58.35
67354;SHT30;54238;52.278;21.056;2023-08-20T08:11:18;30.17;58.26
67354;SHT30;54238;52.278;21.056;2023-08-20T08:13:50;30.28;58.06
67354;SHT30;54238;52.278;21.056;2023-08-20T08:16:20;30.39;56.93
67354;SHT30;54238;52.278;21.056;2023-08-20T08:18:50;30.35;56.24
67354;SHT30;54238;52.278;21.056;2023-08-20T08:21:22;30.42;56.53
67354;SHT30;54238;52.278;21.056;2023-08-20T08:23:56;30.56;56.41
67354;SHT30;54238;52.278;21.056;2023-08-20T08:26:26;30.62;55.13
67354;SHT30;54238;52.278;21.056;2023-08-20T08:29:06;30.66;55.31
67354;SHT30;54238;52.278;21.056;2023-08-20T08:31:35;30.78;55.49
67354;SHT30;54238;52.278;21.056;2023-08-20T08:34:02;30.93;55.32
67354;SHT30;54238;52.278;21.056;2023-08-20T08:36:32;31.11;55.11
67354;SHT30;54238;52.278;21.056;2023-08-20T08:39:03;31.24;54.48
67354;SHT30;54238;52.278;21.056;2023-08-20T08:41:38;31.39;54.33
67354;SHT30;54238;52.278;21.056;2023-08-20T08:44:10;31.57;54.03
67354;SHT30;54238;52.278;21.056;2023-08-20T08:46:43;31.72;52.90
67354;SHT30;54238;52.278;21.056;2023-08-20T08:49:18;31.83;52.52
67354;SHT30;54238;52.278;21.056;2023-08-20T08:51:47;31.95;51.70
67354;SHT30;54238;52.278;21.056;2023-08-20T08:54:18;32.09;50.19
67354;SHT30;54238;52.278;21.056;2023-08-20T08:56:46;32.26;49.81
67354;SHT30;54238;52.278;21.056;2023-08-20T08:59:17;32.34;48.30
67354;SHT30;54238;52.278;21.056;2023-08-20T09:01:44;32.46;48.89
67354;SHT30;54238;52.278;21.056;2023-08-20T09:04:12;32.63;49.12
67354;SHT30;54238;52.278;21.056;2023-08-20T09:06:47;32.78;49.22
67354;SHT30;54238;52.278;21.056;2023-08-20T09:09:19;32.94;48.93
67354;SHT30;54238;52.278;21.056;2023-08-20T09:11:51;33.05;47.26
67354;SHT30;54238;52.278;21.056;2023-08-20T09:14:22;33.05;47.02
67354;SHT30;54238;52.278;21.056;2023-08-20T09:16:57;33.21;47.59
67354;SHT30;54238;52.278;21.056;2023-08-20T09:19:34;33.35;47.42
67354;SHT30;54238;52.278;21.056;2023-08-20T09:22:06;33.51;45.73
67354;SHT30;54238;52.278;21.056;2023-08-20T09:24:41;33.59;44.53
67354;SHT30;54238;52.278;21.056;2023-08-20T09:27:15;33.68;43.59
67354;SHT30;54238;52.278;21.056;2023-08-20T09:29:49;33.80;44.06
67354;SHT30;54238;52.278;21.056;2023-08-20T09:32:22;33.99;43.83
67354;SHT30;54238;52.278;21.056;2023-08-20T09:34:52;34.20;43.95
67354;SHT30;54238;52.278;21.056;2023-08-20T09:37:23;34.45;43.40
67354;SHT30;54238;52.278;21.056;2023-08-20T09:39:51;34.74;43.44
67354;SHT30;54238;52.278;21.056;2023-08-20T09:42:21;35.02;42.42
67354;SHT30;54238;52.278;21.056;2023-08-20T09:44:53;35.17;41.95
67354;SHT30;54238;52.278;21.056;2023-08-20T09:47:24;35.32;40.97
67354;SHT30;54238;52.278;21.056;2023-08-20T09:49:58;35.15;41.21
67354;SHT30;54238;52.278;21.056;2023-08-20T09:52:31;34.93;41.89
67354;SHT30;54238;52.278;21.056;2023-08-20T09:55:20;35.05;41.95
67354;SHT30;54238;52.278;21.056;2023-08-20T09:57:51;35.29;41.07
67354;SHT30;54238;52.278;21.056;2023-08-20T10:00:22;35.50;40.87
67354;SHT30;54238;52.278;21.056;2023-08-20T10:02:49;35.72;39.62
67354;SHT30;54238;52.278;21.056;2023-08-20T10:05:19;35.79;39.10
67354;SHT30;54238;52.278;21.056;2023-08-20T10:07:50;35.97;38.09
67354;SHT30;54238;52.278;21.056;2023-08-20T10:10:23;36.21;37.55
67354;SHT30;54238;52.278;21.056;2023-08-20T10:12:55;36.23;37.17
67354;SHT30;54238;52.278;21.056;2023-08-20T10:15:32;36.28;37.29
67354;SHT30;54238;52.278;21.056;2023-08-20T10:18:03;36.40;37.23
67354;SHT30;54238;52.278;21.056;2023-08-20T10:20:39;36.56;37.57
67354;SHT30;54238;52.278;21.056;2023-08-20T10:23:09;36.76;37.32
67354;SHT30;54238;52.278;21.056;2023-08-20T10:25:44;36.94;37.09
67354;SHT30;54238;52.278;21.056;2023-08-20T10:28:14;37.04;36.31
67354;SHT30;54238;52.278;21.056;2023-08-20T10:33:48;37.17;35.97
67354;SHT30;54238;52.278;21.056;2023-08-20T10:36:20;36.96;36.26
67354;SHT30;54238;52.278;21.056;2023-08-20T10:38:54;37.04;36.47
67354;SHT30;54238;52.278;21.056;2023-08-20T10:41:25;37.26;36.04
67354;SHT30;54238;52.278;21.056;2023-08-20T10:43:58;37.36;36.49
67354;SHT30;54238;52.278;21.056;2023-08-20T10:46:27;37.56;36.56
67354;SHT30;54238;52.278;21.056;2023-08-20T10:49:01;37.84;36.12
67354;SHT30;54238;52.278;21.056;2023-08-20T10:54:07;38.48;35.13
67354;SHT30;54238;52.278;21.056;2023-08-20T10:56:40;38.87;34.42
67354;SHT30;54238;52.278;21.056;2023-08-20T11:01:50;38.07;32.15
67354;SHT30;54238;52.278;21.056;2023-08-20T11:04:23;37.99;33.39
67354;SHT30;54238;52.278;21.056;2023-08-20T11:06:59;38.26;32.83
67354;SHT30;54238;52.278;21.056;2023-08-20T11:09:28;38.53;33.03
67354;SHT30;54238;52.278;21.056;2023-08-20T11:12:01;38.76;32.13
67354;SHT30;54238;52.278;21.056;2023-08-20T11:14:31;38.78;31.57
67354;SHT30;54238;52.278;21.056;2023-08-20T11:17:03;38.72;31.66
67354;SHT30;54238;52.278;21.056;2023-08-20T11:19:35;38.89;31.03
67354;SHT30;54238;52.278;21.056;2023-08-20T11:22:07;39.09;31.47
67354;SHT30;54238;52.278;21.056;2023-08-20T11:24:37;39.23;32.13
67354;SHT30;54238;52.278;21.056;2023-08-20T11:27:11;39.53;31.58
67354;SHT30;54238;52.278;21.056;2023-08-20T11:29:41;39.71;31.21
67354;SHT30;54238;52.278;21.056;2023-08-20T11:32:12;39.98;31.49
67354;SHT30;54238;52.278;21.056;2023-08-20T11:34:39;40.01;31.39
67354;SHT30;54238;52.278;21.056;2023-08-20T11:37:12;40.14;30.26
67354;SHT30;54238;52.278;21.056;2023-08-20T11:39:39;40.23;29.53
67354;SHT30;54238;52.278;21.056;2023-08-20T11:42:13;40.40;29.37
67354;SHT30;54238;52.278;21.056;2023-08-20T11:44:44;40.46;29.05
67354;SHT30;54238;52.278;21.056;2023-08-20T11:47:14;40.42;29.37
67354;SHT30;54238;52.278;21.056;2023-08-20T11:49:45;40.43;29.45
67354;SHT30;54238;52.278;21.056;2023-08-20T11:52:31;40.39;29.59
67354;SHT30;54238;52.278;21.056;2023-08-20T11:55:02;40.60;29.98
67354;SHT30;54238;52.278;21.056;2023-08-20T11:57:33;40.88;29.84
67354;SHT30;54238;52.278;21.056;2023-08-20T12:00:08;40.86;29.77
67354;SHT30;54238;52.278;21.056;2023-08-20T12:02:40;40.39;30.04
67354;SHT30;54238;52.278;21.056;2023-08-20T12:05:14;40.31;30.19
67354;SHT30;54238;52.278;21.056;2023-08-20T12:07:56;40.46;29.98
67354;SHT30;54238;52.278;21.056;2023-08-20T12:10:41;40.81;29.97
67354;SHT30;54238;52.278;21.056;2023-08-20T12:13:11;41.01;29.12
67354;SHT30;54238;52.278;21.056;2023-08-20T12:15:39;41.11;29.42
67354;SHT30;54238;52.278;21.056;2023-08-20T12:18:11;41.41;28.55
67354;SHT30;54238;52.278;21.056;2023-08-20T12:20:38;41.43;28.56
67354;SHT30;54238;52.278;21.056;2023-08-20T12:23:13;41.56;28.75
67354;SHT30;54238;52.278;21.056;2023-08-20T12:25:43;41.19;29.07
67354;SHT30;54238;52.278;21.056;2023-08-20T12:28:10;40.52;28.92
67354;SHT30;54238;52.278;21.056;2023-08-20T12:30:43;39.68;29.93
67354;SHT30;54238;52.278;21.056;2023-08-20T12:33:19;39.00;30.75
67354;SHT30;54238;52.278;21.056;2023-08-20T12:35:54;38.50;31.25
67354;SHT30;54238;52.278;21.056;2023-08-20T12:38:24;38.30;31.73
67354;SHT30;54238;52.278;21.056;2023-08-20T12:41:00;38.69;32.06
67354;SHT30;54238;52.278;21.056;2023-08-20T12:43:30;39.22;32.15
67354;SHT30;54238;52.278;21.056;2023-08-20T12:46:02;39.67;30.79
67354;SHT30;54238;52.278;21.056;2023-08-20T12:48:32;40.11;30.22
67354;SHT30;54238;52.278;21.056;2023-08-20T12:50:59;40.51;29.53
67354;SHT30;54238;52.278;21.056;2023-08-20T12:53:27;40.80;29.51
67354;SHT30;54238;52.278;21.056;2023-08-20T12:55:57;41.05;30.01
67354;SHT30;54238;52.278;21.056;2023-08-20T12:58:29;40.96;29.81
67354;SHT30;54238;52.278;21.056;2023-08-20T13:00:58;40.54;30.04
67354;SHT30;54238;52.278;21.056;2023-08-20T13:03:29;40.08;30.46
67354;SHT30;54238;52.278;21.056;2023-08-20T13:05:58;40.10;30.15
67354;SHT30;54238;52.278;21.056;2023-08-20T13:08:27;40.43;29.86
67354;SHT30;54238;52.278;21.056;2023-08-20T13:10:56;40.89;29.44
67354;SHT30;54238;52.278;21.056;2023-08-20T13:13:28;41.18;28.74
67354;SHT30;54238;52.278;21.056;2023-08-20T13:16:01;41.26;29.30
67354;SHT30;54238;52.278;21.056;2023-08-20T13:18:33;41.40;28.27
67354;SHT30;54238;52.278;21.056;2023-08-20T13:21:06;41.55;27.72
67354;SHT30;54238;52.278;21.056;2023-08-20T13:23:36;41.73;28.03
67354;SHT30;54238;52.278;21.056;2023-08-20T13:26:03;41.70;27.59
67354;SHT30;54238;52.278;21.056;2023-08-20T13:28:34;41.23;28.06
67354;SHT30;54238;52.278;21.056;2023-08-20T13:31:01;40.62;29.07
67354;SHT30;54238;52.278;21.056;2023-08-20T13:33:33;39.93;29.83
67354;SHT30;54238;52.278;21.056;2023-08-20T13:36:02;39.52;30.12
67354;SHT30;54238;52.278;21.056;2023-08-20T13:38:33;39.67;30.21
67354;SHT30;54238;52.278;21.056;2023-08-20T13:41:01;40.03;30.25
67354;SHT30;54238;52.278;21.056;2023-08-20T13:43:28;40.50;30.01
67354;SHT30;54238;52.278;21.056;2023-08-20T13:45:58;40.62;28.76
67354;SHT30;54238;52.278;21.056;2023-08-20T13:48:33;40.41;28.82
67354;SHT30;54238;52.278;21.056;2023-08-20T13:51:00;40.12;28.93
67354;SHT30;54238;52.278;21.056;2023-08-20T13:53:29;40.02;29.49
67354;SHT30;54238;52.278;21.056;2023-08-20T13:55:59;40.09;29.82
67354;SHT30;54238;52.278;21.056;2023-08-20T13:58:26;40.29;30.12
67354;SHT30;54238;52.278;21.056;2023-08-20T14:00:53;40.30;29.87
67354;SHT30;54238;52.278;21.056;2023-08-20T14:03:24;40.34;29.44
67354;SHT30;54238;52.278;21.056;2023-08-20T14:05:54;40.35;29.68
67354;SHT30;54238;52.278;21.056;2023-08-20T14:08:24;40.18;29.88
67354;SHT30;54238;52.278;21.056;2023-08-20T14:10:57;39.75;30.07
67354;SHT30;54238;52.278;21.056;2023-08-20T14:13:27;39.74;30.16
67354;SHT30;54238;52.278;21.056;2023-08-20T14:15:54;39.85;29.95
67354;SHT30;54238;52.278;21.056;2023-08-20T14:18:24;39.62;29.81
67354;SHT30;54238;52.278;21.056;2023-08-20T14:20:54;39.23;30.28
67354;SHT30;54238;52.278;21.056;2023-08-20T14:23:22;39.16;30.70
67354;SHT30;54238;52.278;21.056;2023-08-20T14:25:49;39.13;30.52
67354;SHT30;54238;52.278;21.056;2023-08-20T14:28:16;39.22;30.45
67354;SHT30;54238;52.278;21.056;2023-08-20T14:30:49;39.32;30.46
67354;SHT30;54238;52.278;21.056;2023-08-20T14:33:21;38.92;30.70
67354;SHT30;54238;52.278;21.056;2023-08-20T14:35:50;38.72;30.74
67354;SHT30;54238;52.278;21.056;2023-08-20T14:38:17;38.71;30.67
67354;SHT30;54238;52.278;21.056;2023-08-20T14:40:46;38.76;30.01
67354;SHT30;54238;52.278;21.056;2023-08-20T14:43:15;38.83;30.30
67354;SHT30;54238;52.278;21.056;2023-08-20T14:45:42;38.75;30.34
67354;SHT30;54238;52.278;21.056;2023-08-20T14:48:15;38.70;30.85
67354;SHT30;54238;52.278;21.056;2023-08-20T14:50:46;38.78;30.74
67354;SHT30;54238;52.278;21.056;2023-08-20T14:53:15;38.99;30.94
67354;SHT30;54238;52.278;21.056;2023-08-20T14:55:45;39.26;30.54
67354;SHT30;54238;52.278;21.056;2023-08-20T14:58:15;39.25;29.78
67354;SHT30;54238;52.278;21.056;2023-08-20T15:00:42;39.19;29.90
67354;SHT30;54238;52.278;21.056;2023-08-20T15:03:12;39.09;29.98
67354;SHT30;54238;52.278;21.056;2023-08-20T15:05:42;38.88;29.92
67354;SHT30;54238;52.278;21.056;2023-08-20T15:08:09;38.73;30.20
67354;SHT30;54238;52.278;21.056;2023-08-20T15:10:41;38.67;30.37
67354;SHT30;54238;52.278;21.056;2023-08-20T15:13:10;38.72;30.57
67354;SHT30;54238;52.278;21.056;2023-08-20T15:15:39;38.78;30.89
67354;SHT30;54238;52.278;21.056;2023-08-20T15:18:10;38.67;30.62
67354;SHT30;54238;52.278;21.056;2023-08-20T15:20:40;38.52;30.96
67354;SHT30;54238;52.278;21.056;2023-08-20T15:23:12;38.42;31.15
67354;SHT30;54238;52.278;21.056;2023-08-20T15:25:46;38.33;31.53
67354;SHT30;54238;52.278;21.056;2023-08-20T15:28:14;38.39;31.82
67354;SHT30;54238;52.278;21.056;2023-08-20T15:30:41;38.29;31.52
67354;SHT30;54238;52.278;21.056;2023-08-20T15:33:13;38.05;31.89
67354;SHT30;54238;52.278;21.056;2023-08-20T15:35:40;37.75;31.97
67354;SHT30;54238;52.278;21.056;2023-08-20T15:38:07;37.53;31.88
67354;SHT30;54238;52.278;21.056;2023-08-20T15:40:40;37.36;32.53
67354;SHT30;54238;52.278;21.056;2023-08-20T15:43:14;37.21;32.55
67354;SHT30;54238;52.278;21.056;2023-08-20T15:45:44;37.02;32.93
67354;SHT30;54238;52.278;21.056;2023-08-20T15:48:16;36.81;33.17
67354;SHT30;54238;52.278;21.056;2023-08-20T15:50:43;36.66;33.66
67354;SHT30;54238;52.278;21.056;2023-08-20T15:53:11;36.65;33.73